メインページ
METAR-TAF:

METAR-TAF

空港 :

North Battleford, サスカチュワン州, カナダ

緯度: 52-46N, 経度: 108-15W, 海抜: 548m

現時点の気象観測

当レポートは15分前の10:00(UTC)に作成
西/北西の風 3kt
気温 8°C
湿度 100%
気圧 1013 hPa
視程: 0.6km
晴天

METAR: CYQW 261000Z AUTO 30003KT 3/8SM FG CLR 08/08 A2990 RMK SLP135

時間: 04:15 (10:15 UTC)

予報

当レポートは35分前の09:40(UTC)に作成
予報は26日の 09時(UTC)から 26日の 18時(UTC)まで有効
北西の風 4kt
視程: 1.2km
高度9000ftの雲はほとんどない
26日の 09時(UTC)から 26日の 14時(UTC)まで一時的に
視程: 9.7km
高度9000ftの雲は散在している
26日の 1400時(UTC)から
西/北西の風 6kt
視程: 10km
高度3000ftの雲はほとんどない
高度9000ftの雲は散在している

TAF: CYQW 260940Z 2609/2618 31004KT 3/4SM BR FEW090 TEMPO 2609/2614 6SM BR SCT090 FM261400 30006KT P6SM FEW030 SCT090 RMK FCST BASED ON AUTO OBS. NXT FCST BY 261200Z

4,000以上の空港の気象観測と天気予報(METAR報とTAF報)

利用可能な観測所は地図上に黄色い丸と赤い丸で示す。

丸の上にカーソルを重ねると観測所名を参照できる。

次にクリックすると気象観測と天気予報を参照できる。

マップの切り替え:黒色「×」印の緑ボタンをクリックして拡大、「-」印の緑ボタンをクリックして縮小、緑色の三角印をクリックして隣りの地図に切り替え


METAR-TAF: